首页
METAR-TAF:

METAR-TAF

机场 :

布加勒斯特奥托佩尼-亨利·科安德国际机场

布加勒斯特, 罗马尼亚

纬度: 44-33N, 经度: 026-06E, 海拔: 95米

当前天气观测

该预报发布于37分钟前的14:00 UTC
风速14节,风向西转西南
温度 18°C
湿度 52%
气压 1015 hPa
能见度10公里或以上
1500米以下无云,无积雨云

METAR: LROP 231400Z 24014KT CAVOK 18/08 Q1015 NOSIG

时间: 17:37 (14:37 UTC)

预报

该预报发布于3小时和37分钟前的11:00 UTC
预报有效从23日的 12点(UTC)到 24日的 12点(UTC)
风速10节,风向西转西南
能见度10公里或以上
1500米以下无云,无积雨云
短暂存在
从 23日的 21点(UTC)到 24日的 06点(UTC)
风速18节,风向西,有时为28节阵风
成为
从 24日的 06点(UTC)到 24日的 08点(UTC)
风速20节,风向西
短暂存在
从 24日的 09点(UTC)到 24日的 12点(UTC)
风速20节,风向西,有时为35节阵风

TAF: LROP 231100Z 2312/2412 25010KT CAVOK TEMPO 2321/2406 26018G28KT BECMG 2406/2408 26020KT TEMPO 2409/2412 26020G35KT

超过4000个机场的气象观测和天气预报(METAR&TAF报告)。

可查询的气象台以黄色和红色小点在地图上表示。

将鼠标移到小点上方,可查看气象台名称。

然后点击查看天气观测和预报。

如需切换地图:点击带黑十字的绿色按钮放大地图;点击带横线的绿色按钮缩小地图;或者点击绿色箭头查看邻近地区的地图。


METAR-TAF: